sensor_id;sensor_type;location;lat;lon;timestamp;temperature;humidity
20845;DHT22;10583;49.084;8.646;2023-06-14T00:01:56;13.10;99.90
20845;DHT22;10583;49.084;8.646;2023-06-14T00:04:23;13.10;99.90
20845;DHT22;10583;49.084;8.646;2023-06-14T00:06:51;13.20;99.90
20845;DHT22;10583;49.084;8.646;2023-06-14T00:09:18;13.20;99.90
20845;DHT22;10583;49.084;8.646;2023-06-14T00:11:46;13.20;99.90
20845;DHT22;10583;49.084;8.646;2023-06-14T00:14:13;13.10;99.90
20845;DHT22;10583;49.084;8.646;2023-06-14T00:16:40;13.10;99.90
20845;DHT22;10583;49.084;8.646;2023-06-14T00:19:08;13.10;99.90
20845;DHT22;10583;49.084;8.646;2023-06-14T00:21:36;13.20;99.90
20845;DHT22;10583;49.084;8.646;2023-06-14T00:24:04;13.20;99.90
20845;DHT22;10583;49.084;8.646;2023-06-14T00:26:31;13.10;99.90
20845;DHT22;10583;49.084;8.646;2023-06-14T00:28:59;13.10;99.90
20845;DHT22;10583;49.084;8.646;2023-06-14T00:31:26;13.10;99.90
20845;DHT22;10583;49.084;8.646;2023-06-14T00:33:53;13.10;99.90
20845;DHT22;10583;49.084;8.646;2023-06-14T00:36:19;13.00;99.90
20845;DHT22;10583;49.084;8.646;2023-06-14T00:38:46;13.00;99.90
20845;DHT22;10583;49.084;8.646;2023-06-14T00:41:13;12.90;99.90
20845;DHT22;10583;49.084;8.646;2023-06-14T00:43:40;12.90;99.90
20845;DHT22;10583;49.084;8.646;2023-06-14T00:46:09;12.90;99.90
20845;DHT22;10583;49.084;8.646;2023-06-14T00:48:36;12.90;99.90
20845;DHT22;10583;49.084;8.646;2023-06-14T00:51:04;12.90;99.90
20845;DHT22;10583;49.084;8.646;2023-06-14T00:53:31;13.00;99.90
20845;DHT22;10583;49.084;8.646;2023-06-14T00:56:00;13.10;99.90
20845;DHT22;10583;49.084;8.646;2023-06-14T00:58:27;13.00;99.90
20845;DHT22;10583;49.084;8.646;2023-06-14T01:00:56;13.00;99.90
20845;DHT22;10583;49.084;8.646;2023-06-14T01:03:26;13.00;99.90
20845;DHT22;10583;49.084;8.646;2023-06-14T01:05:59;12.90;99.90
20845;DHT22;10583;49.084;8.646;2023-06-14T01:08:39;12.80;99.90
20845;DHT22;10583;49.084;8.646;2023-06-14T01:11:14;12.80;99.90
20845;DHT22;10583;49.084;8.646;2023-06-14T01:13:46;12.70;99.90
20845;DHT22;10583;49.084;8.646;2023-06-14T01:16:14;12.80;99.90
20845;DHT22;10583;49.084;8.646;2023-06-14T01:18:44;12.80;99.90
20845;DHT22;10583;49.084;8.646;2023-06-14T01:21:20;12.90;99.90
20845;DHT22;10583;49.084;8.646;2023-06-14T01:23:49;12.90;99.90
20845;DHT22;10583;49.084;8.646;2023-06-14T01:26:19;13.00;99.90
20845;DHT22;10583;49.084;8.646;2023-06-14T01:28:46;13.00;99.90
20845;DHT22;10583;49.084;8.646;2023-06-14T01:31:17;13.00;99.90
20845;DHT22;10583;49.084;8.646;2023-06-14T01:33:45;12.90;99.90
20845;DHT22;10583;49.084;8.646;2023-06-14T01:36:12;12.90;99.90
20845;DHT22;10583;49.084;8.646;2023-06-14T01:38:41;12.90;99.90
20845;DHT22;10583;49.084;8.646;2023-06-14T01:41:10;12.90;99.90
20845;DHT22;10583;49.084;8.646;2023-06-14T01:43:38;13.00;99.90
20845;DHT22;10583;49.084;8.646;2023-06-14T01:46:06;13.00;99.90
20845;DHT22;10583;49.084;8.646;2023-06-14T01:48:35;12.90;99.90
20845;DHT22;10583;49.084;8.646;2023-06-14T01:51:02;13.00;99.90
20845;DHT22;10583;49.084;8.646;2023-06-14T01:53:29;13.00;99.90
20845;DHT22;10583;49.084;8.646;2023-06-14T01:55:55;13.00;99.90
20845;DHT22;10583;49.084;8.646;2023-06-14T01:58:24;12.90;99.90
20845;DHT22;10583;49.084;8.646;2023-06-14T02:00:52;12.90;99.90
20845;DHT22;10583;49.084;8.646;2023-06-14T02:03:20;13.00;99.90
20845;DHT22;10583;49.084;8.646;2023-06-14T02:05:49;13.00;99.90
20845;DHT22;10583;49.084;8.646;2023-06-14T02:08:16;12.90;99.90
20845;DHT22;10583;49.084;8.646;2023-06-14T02:10:43;12.80;99.90
20845;DHT22;10583;49.084;8.646;2023-06-14T02:13:09;12.70;99.90
20845;DHT22;10583;49.084;8.646;2023-06-14T02:15:38;12.80;99.90
20845;DHT22;10583;49.084;8.646;2023-06-14T02:18:05;12.70;99.90
20845;DHT22;10583;49.084;8.646;2023-06-14T02:20:32;12.70;99.90
20845;DHT22;10583;49.084;8.646;2023-06-14T02:22:59;12.70;99.90
20845;DHT22;10583;49.084;8.646;2023-06-14T02:25:26;12.70;99.90
20845;DHT22;10583;49.084;8.646;2023-06-14T02:27:54;12.60;99.90
20845;DHT22;10583;49.084;8.646;2023-06-14T02:30:21;12.70;99.90
20845;DHT22;10583;49.084;8.646;2023-06-14T02:32:50;12.70;99.90
20845;DHT22;10583;49.084;8.646;2023-06-14T02:35:19;12.70;99.90
20845;DHT22;10583;49.084;8.646;2023-06-14T02:37:47;12.70;99.90
20845;DHT22;10583;49.084;8.646;2023-06-14T02:40:14;12.60;99.90
20845;DHT22;10583;49.084;8.646;2023-06-14T02:42:41;12.50;99.90
20845;DHT22;10583;49.084;8.646;2023-06-14T02:45:08;12.40;99.90
20845;DHT22;10583;49.084;8.646;2023-06-14T02:47:35;12.40;99.90
20845;DHT22;10583;49.084;8.646;2023-06-14T02:50:04;12.30;99.90
20845;DHT22;10583;49.084;8.646;2023-06-14T02:52:31;12.40;99.90
20845;DHT22;10583;49.084;8.646;2023-06-14T02:54:58;12.30;99.90
20845;DHT22;10583;49.084;8.646;2023-06-14T02:57:25;12.40;99.90
20845;DHT22;10583;49.084;8.646;2023-06-14T02:59:52;12.30;99.90
20845;DHT22;10583;49.084;8.646;2023-06-14T03:02:18;12.40;99.90
20845;DHT22;10583;49.084;8.646;2023-06-14T03:04:45;12.40;99.90
20845;DHT22;10583;49.084;8.646;2023-06-14T03:07:13;12.40;99.90
20845;DHT22;10583;49.084;8.646;2023-06-14T03:09:45;12.30;99.90
20845;DHT22;10583;49.084;8.646;2023-06-14T03:12:12;12.30;99.90
20845;DHT22;10583;49.084;8.646;2023-06-14T03:14:39;12.30;99.90
20845;DHT22;10583;49.084;8.646;2023-06-14T03:17:05;12.40;99.90
20845;DHT22;10583;49.084;8.646;2023-06-14T03:19:33;12.40;99.90
20845;DHT22;10583;49.084;8.646;2023-06-14T03:22:00;12.50;99.90
20845;DHT22;10583;49.084;8.646;2023-06-14T03:24:29;12.60;99.90
20845;DHT22;10583;49.084;8.646;2023-06-14T03:27:01;12.60;99.90
20845;DHT22;10583;49.084;8.646;2023-06-14T03:29:28;12.60;99.90
20845;DHT22;10583;49.084;8.646;2023-06-14T03:31:59;12.60;99.90
20845;DHT22;10583;49.084;8.646;2023-06-14T03:34:26;12.50;99.90
20845;DHT22;10583;49.084;8.646;2023-06-14T03:36:53;12.50;99.90
20845;DHT22;10583;49.084;8.646;2023-06-14T03:39:20;12.60;99.90
20845;DHT22;10583;49.084;8.646;2023-06-14T03:41:48;12.70;99.90
20845;DHT22;10583;49.084;8.646;2023-06-14T03:44:16;12.70;99.90
20845;DHT22;10583;49.084;8.646;2023-06-14T03:46:43;12.70;99.90
20845;DHT22;10583;49.084;8.646;2023-06-14T03:49:10;12.70;99.90
20845;DHT22;10583;49.084;8.646;2023-06-14T03:51:37;12.60;99.90
20845;DHT22;10583;49.084;8.646;2023-06-14T03:54:05;12.60;99.90
20845;DHT22;10583;49.084;8.646;2023-06-14T03:56:32;12.50;99.90
20845;DHT22;10583;49.084;8.646;2023-06-14T03:59:00;12.40;99.90
20845;DHT22;10583;49.084;8.646;2023-06-14T04:01:27;12.40;99.90
20845;DHT22;10583;49.084;8.646;2023-06-14T04:03:55;12.50;99.90
20845;DHT22;10583;49.084;8.646;2023-06-14T04:06:23;12.50;99.90
20845;DHT22;10583;49.084;8.646;2023-06-14T04:08:50;12.50;99.90
20845;DHT22;10583;49.084;8.646;2023-06-14T04:11:17;12.50;99.90
20845;DHT22;10583;49.084;8.646;2023-06-14T04:13:45;12.50;99.90
20845;DHT22;10583;49.084;8.646;2023-06-14T04:16:13;12.50;99.90
20845;DHT22;10583;49.084;8.646;2023-06-14T04:18:40;12.60;99.90
20845;DHT22;10583;49.084;8.646;2023-06-14T04:21:07;12.70;99.90
20845;DHT22;10583;49.084;8.646;2023-06-14T04:23:33;12.70;99.90
20845;DHT22;10583;49.084;8.646;2023-06-14T04:26:00;12.80;99.90
20845;DHT22;10583;49.084;8.646;2023-06-14T04:28:28;12.80;99.90
20845;DHT22;10583;49.084;8.646;2023-06-14T04:30:55;12.90;99.90
20845;DHT22;10583;49.084;8.646;2023-06-14T04:33:23;13.00;99.90
20845;DHT22;10583;49.084;8.646;2023-06-14T04:35:50;13.10;99.90
20845;DHT22;10583;49.084;8.646;2023-06-14T04:38:19;13.20;99.90
20845;DHT22;10583;49.084;8.646;2023-06-14T04:40:50;13.10;99.90
20845;DHT22;10583;49.084;8.646;2023-06-14T04:43:18;13.20;99.90
20845;DHT22;10583;49.084;8.646;2023-06-14T04:45:52;13.40;99.90
20845;DHT22;10583;49.084;8.646;2023-06-14T04:48:20;13.50;99.90
20845;DHT22;10583;49.084;8.646;2023-06-14T04:50:48;13.60;99.90
20845;DHT22;10583;49.084;8.646;2023-06-14T04:53:18;13.70;99.90
20845;DHT22;10583;49.084;8.646;2023-06-14T04:55:47;13.80;99.90
20845;DHT22;10583;49.084;8.646;2023-06-14T04:58:13;13.90;99.90
20845;DHT22;10583;49.084;8.646;2023-06-14T05:00:40;14.10;99.90
20845;DHT22;10583;49.084;8.646;2023-06-14T05:03:09;14.20;99.90
20845;DHT22;10583;49.084;8.646;2023-06-14T05:05:39;14.40;99.90
20845;DHT22;10583;49.084;8.646;2023-06-14T05:08:07;14.50;99.90
20845;DHT22;10583;49.084;8.646;2023-06-14T05:10:34;14.70;99.90
20845;DHT22;10583;49.084;8.646;2023-06-14T05:13:01;14.90;99.90
20845;DHT22;10583;49.084;8.646;2023-06-14T05:15:28;15.00;99.90
20845;DHT22;10583;49.084;8.646;2023-06-14T05:17:55;15.20;99.90
20845;DHT22;10583;49.084;8.646;2023-06-14T05:20:22;15.40;99.90
20845;DHT22;10583;49.084;8.646;2023-06-14T05:22:50;15.60;99.90
20845;DHT22;10583;49.084;8.646;2023-06-14T05:25:19;15.80;99.90
20845;DHT22;10583;49.084;8.646;2023-06-14T05:27:47;16.00;99.90
20845;DHT22;10583;49.084;8.646;2023-06-14T05:30:14;16.20;99.90
20845;DHT22;10583;49.084;8.646;2023-06-14T05:32:41;16.30;99.90
20845;DHT22;10583;49.084;8.646;2023-06-14T05:35:08;16.40;99.90
20845;DHT22;10583;49.084;8.646;2023-06-14T05:37:36;16.50;99.90
20845;DHT22;10583;49.084;8.646;2023-06-14T05:40:05;16.70;99.90
20845;DHT22;10583;49.084;8.646;2023-06-14T05:42:37;16.80;99.90
20845;DHT22;10583;49.084;8.646;2023-06-14T05:45:04;16.90;99.90
20845;DHT22;10583;49.084;8.646;2023-06-14T05:47:32;17.10;99.90
20845;DHT22;10583;49.084;8.646;2023-06-14T05:49:59;17.30;99.90
20845;DHT22;10583;49.084;8.646;2023-06-14T05:52:26;17.50;99.90
20845;DHT22;10583;49.084;8.646;2023-06-14T05:54:53;17.60;99.90
20845;DHT22;10583;49.084;8.646;2023-06-14T05:57:20;17.80;99.90
20845;DHT22;10583;49.084;8.646;2023-06-14T05:59:48;17.90;99.90
20845;DHT22;10583;49.084;8.646;2023-06-14T06:02:15;17.80;99.90
20845;DHT22;10583;49.084;8.646;2023-06-14T06:04:42;17.90;99.90
20845;DHT22;10583;49.084;8.646;2023-06-14T06:07:09;18.20;99.90
20845;DHT22;10583;49.084;8.646;2023-06-14T06:09:35;18.40;99.90
20845;DHT22;10583;49.084;8.646;2023-06-14T06:12:02;18.70;99.90
20845;DHT22;10583;49.084;8.646;2023-06-14T06:14:29;19.00;99.90
20845;DHT22;10583;49.084;8.646;2023-06-14T06:16:57;19.20;99.90
20845;DHT22;10583;49.084;8.646;2023-06-14T06:19:24;19.40;99.90
20845;DHT22;10583;49.084;8.646;2023-06-14T06:21:50;19.70;99.90
20845;DHT22;10583;49.084;8.646;2023-06-14T06:24:17;19.90;99.90
20845;DHT22;10583;49.084;8.646;2023-06-14T06:26:44;20.00;99.90
20845;DHT22;10583;49.084;8.646;2023-06-14T06:29:10;20.20;99.90
20845;DHT22;10583;49.084;8.646;2023-06-14T06:31:37;20.20;99.80
20845;DHT22;10583;49.084;8.646;2023-06-14T06:34:05;20.30;99.60
20845;DHT22;10583;49.084;8.646;2023-06-14T06:36:32;20.50;99.30
20845;DHT22;10583;49.084;8.646;2023-06-14T06:38:59;20.80;99.10
20845;DHT22;10583;49.084;8.646;2023-06-14T06:41:25;21.00;98.80
20845;DHT22;10583;49.084;8.646;2023-06-14T06:43:52;21.20;99.00
20845;DHT22;10583;49.084;8.646;2023-06-14T06:46:19;21.30;98.50
20845;DHT22;10583;49.084;8.646;2023-06-14T06:48:45;21.50;98.20
20845;DHT22;10583;49.084;8.646;2023-06-14T06:51:14;21.60;98.70
20845;DHT22;10583;49.084;8.646;2023-06-14T06:53:42;21.80;97.20
20845;DHT22;10583;49.084;8.646;2023-06-14T06:56:09;21.80;97.20
20845;DHT22;10583;49.084;8.646;2023-06-14T06:58:36;22.00;97.00
20845;DHT22;10583;49.084;8.646;2023-06-14T07:01:02;21.90;97.20
20845;DHT22;10583;49.084;8.646;2023-06-14T07:03:29;21.90;96.40
20845;DHT22;10583;49.084;8.646;2023-06-14T07:05:56;22.00;96.70
20845;DHT22;10583;49.084;8.646;2023-06-14T07:08:24;22.30;96.00
20845;DHT22;10583;49.084;8.646;2023-06-14T07:10:51;22.50;95.60
20845;DHT22;10583;49.084;8.646;2023-06-14T07:13:17;22.50;95.30
20845;DHT22;10583;49.084;8.646;2023-06-14T07:15:44;22.60;95.40
20845;DHT22;10583;49.084;8.646;2023-06-14T07:18:11;22.70;94.80
20845;DHT22;10583;49.084;8.646;2023-06-14T07:20:38;22.50;94.40
20845;DHT22;10583;49.084;8.646;2023-06-14T07:23:06;22.30;95.20
20845;DHT22;10583;49.084;8.646;2023-06-14T07:25:40;22.40;94.60
20845;DHT22;10583;49.084;8.646;2023-06-14T07:28:06;22.60;95.00
20845;DHT22;10583;49.084;8.646;2023-06-14T07:30:33;22.90;94.10
20845;DHT22;10583;49.084;8.646;2023-06-14T07:33:00;23.10;94.60
20845;DHT22;10583;49.084;8.646;2023-06-14T07:35:28;23.00;93.60
20845;DHT22;10583;49.084;8.646;2023-06-14T07:37:55;22.90;93.60
20845;DHT22;10583;49.084;8.646;2023-06-14T07:40:23;23.00;93.90
20845;DHT22;10583;49.084;8.646;2023-06-14T07:42:51;23.30;93.70
20845;DHT22;10583;49.084;8.646;2023-06-14T07:45:20;23.70;94.10
20845;DHT22;10583;49.084;8.646;2023-06-14T07:47:46;23.90;92.80
20845;DHT22;10583;49.084;8.646;2023-06-14T07:50:13;23.70;92.80
20845;DHT22;10583;49.084;8.646;2023-06-14T07:52:40;23.70;93.00
20845;DHT22;10583;49.084;8.646;2023-06-14T07:55:07;23.90;92.60
20845;DHT22;10583;49.084;8.646;2023-06-14T07:57:34;24.10;92.30
20845;DHT22;10583;49.084;8.646;2023-06-14T08:00:04;24.30;91.30
20845;DHT22;10583;49.084;8.646;2023-06-14T08:02:32;24.50;91.60
20845;DHT22;10583;49.084;8.646;2023-06-14T08:04:59;24.20;91.00
20845;DHT22;10583;49.084;8.646;2023-06-14T08:07:26;24.20;91.30
20845;DHT22;10583;49.084;8.646;2023-06-14T08:09:52;24.30;91.20
20845;DHT22;10583;49.084;8.646;2023-06-14T08:12:19;24.50;91.00
20845;DHT22;10583;49.084;8.646;2023-06-14T08:14:46;24.70;90.80
20845;DHT22;10583;49.084;8.646;2023-06-14T08:17:14;24.70;90.90
20845;DHT22;10583;49.084;8.646;2023-06-14T08:19:40;24.90;91.00
20845;DHT22;10583;49.084;8.646;2023-06-14T08:22:07;25.20;90.60
20845;DHT22;10583;49.084;8.646;2023-06-14T08:24:37;25.60;91.30
20845;DHT22;10583;49.084;8.646;2023-06-14T08:27:05;26.00;90.00
20845;DHT22;10583;49.084;8.646;2023-06-14T08:29:32;26.00;89.20
20845;DHT22;10583;49.084;8.646;2023-06-14T08:31:58;25.50;88.20
20845;DHT22;10583;49.084;8.646;2023-06-14T08:34:27;25.60;88.80
20845;DHT22;10583;49.084;8.646;2023-06-14T08:36:53;25.90;89.10
20845;DHT22;10583;49.084;8.646;2023-06-14T08:39:20;26.30;88.90
20845;DHT22;10583;49.084;8.646;2023-06-14T08:41:47;26.70;87.80
20845;DHT22;10583;49.084;8.646;2023-06-14T08:44:15;26.60;86.50
20845;DHT22;10583;49.084;8.646;2023-06-14T08:46:41;26.10;85.70
20845;DHT22;10583;49.084;8.646;2023-06-14T08:49:11;25.80;86.70
20845;DHT22;10583;49.084;8.646;2023-06-14T08:51:39;25.60;87.20
20845;DHT22;10583;49.084;8.646;2023-06-14T08:54:07;25.70;87.40
20845;DHT22;10583;49.084;8.646;2023-06-14T08:56:37;25.80;87.30
20845;DHT22;10583;49.084;8.646;2023-06-14T08:59:04;26.00;88.50
20845;DHT22;10583;49.084;8.646;2023-06-14T09:01:34;26.10;87.10
20845;DHT22;10583;49.084;8.646;2023-06-14T09:04:01;26.10;86.20
20845;DHT22;10583;49.084;8.646;2023-06-14T09:06:30;26.10;86.30
20845;DHT22;10583;49.084;8.646;2023-06-14T09:08:59;26.40;87.20
20845;DHT22;10583;49.084;8.646;2023-06-14T09:11:26;26.80;87.50
20845;DHT22;10583;49.084;8.646;2023-06-14T09:13:53;27.00;83.80
20845;DHT22;10583;49.084;8.646;2023-06-14T09:16:20;26.90;82.60
20845;DHT22;10583;49.084;8.646;2023-06-14T09:18:47;27.20;82.80
20845;DHT22;10583;49.084;8.646;2023-06-14T09:21:15;27.50;82.10
20845;DHT22;10583;49.084;8.646;2023-06-14T09:23:43;27.30;82.10
20845;DHT22;10583;49.084;8.646;2023-06-14T09:26:12;27.00;82.80
20845;DHT22;10583;49.084;8.646;2023-06-14T09:28:42;26.90;83.10
20845;DHT22;10583;49.084;8.646;2023-06-14T09:31:10;26.70;82.50
20845;DHT22;10583;49.084;8.646;2023-06-14T09:33:37;26.50;82.10
20845;DHT22;10583;49.084;8.646;2023-06-14T09:36:04;26.40;82.30
20845;DHT22;10583;49.084;8.646;2023-06-14T09:38:30;26.70;80.30
20845;DHT22;10583;49.084;8.646;2023-06-14T09:40:58;27.00;81.40
20845;DHT22;10583;49.084;8.646;2023-06-14T09:43:27;27.50;81.80
20845;DHT22;10583;49.084;8.646;2023-06-14T09:45:54;27.40;80.40
20845;DHT22;10583;49.084;8.646;2023-06-14T09:48:21;27.20;79.60
20845;DHT22;10583;49.084;8.646;2023-06-14T09:50:49;27.00;79.00
20845;DHT22;10583;49.084;8.646;2023-06-14T09:53:21;27.20;79.80
20845;DHT22;10583;49.084;8.646;2023-06-14T09:55:49;27.40;79.10
20845;DHT22;10583;49.084;8.646;2023-06-14T09:58:16;27.30;80.90
20845;DHT22;10583;49.084;8.646;2023-06-14T10:00:47;27.60;81.10
20845;DHT22;10583;49.084;8.646;2023-06-14T10:03:21;27.80;80.10
20845;DHT22;10583;49.084;8.646;2023-06-14T10:05:50;28.00;80.40
20845;DHT22;10583;49.084;8.646;2023-06-14T10:08:19;28.10;79.00
20845;DHT22;10583;49.084;8.646;2023-06-14T10:10:46;28.20;78.10
20845;DHT22;10583;49.084;8.646;2023-06-14T10:13:14;28.40;79.20
20845;DHT22;10583;49.084;8.646;2023-06-14T10:15:46;29.00;77.60
20845;DHT22;10583;49.084;8.646;2023-06-14T10:18:21;28.90;77.60
20845;DHT22;10583;49.084;8.646;2023-06-14T10:20:55;28.50;78.50
20845;DHT22;10583;49.084;8.646;2023-06-14T10:23:27;28.10;78.20
20845;DHT22;10583;49.084;8.646;2023-06-14T10:25:57;27.60;78.80
20845;DHT22;10583;49.084;8.646;2023-06-14T10:28:25;27.80;78.50
20845;DHT22;10583;49.084;8.646;2023-06-14T10:31:02;28.10;79.10
20845;DHT22;10583;49.084;8.646;2023-06-14T10:33:31;28.10;79.40
20845;DHT22;10583;49.084;8.646;2023-06-14T10:36:25;27.40;78.10
20845;DHT22;10583;49.084;8.646;2023-06-14T10:39:00;27.50;78.70
20845;DHT22;10583;49.084;8.646;2023-06-14T10:41:28;27.30;78.50
20845;DHT22;10583;49.084;8.646;2023-06-14T10:46:58;28.10;76.60
20845;DHT22;10583;49.084;8.646;2023-06-14T10:49:39;28.40;75.40
20845;DHT22;10583;49.084;8.646;2023-06-14T10:52:08;28.80;76.00
20845;DHT22;10583;49.084;8.646;2023-06-14T10:55:05;28.60;77.10
20845;DHT22;10583;49.084;8.646;2023-06-14T10:57:35;29.00;75.20
20845;DHT22;10583;49.084;8.646;2023-06-14T11:00:03;29.60;74.70
20845;DHT22;10583;49.084;8.646;2023-06-14T11:05:52;28.80;74.80
20845;DHT22;10583;49.084;8.646;2023-06-14T11:11:42;28.10;75.30
20845;DHT22;10583;49.084;8.646;2023-06-14T11:14:10;28.70;75.80
20845;DHT22;10583;49.084;8.646;2023-06-14T11:16:37;29.00;76.30
20845;DHT22;10583;49.084;8.646;2023-06-14T11:19:03;29.10;74.50
20845;DHT22;10583;49.084;8.646;2023-06-14T11:21:32;29.60;74.20
20845;DHT22;10583;49.084;8.646;2023-06-14T11:23:59;29.60;74.30
20845;DHT22;10583;49.084;8.646;2023-06-14T11:26:27;29.50;73.80
20845;DHT22;10583;49.084;8.646;2023-06-14T11:28:57;29.70;72.70
20845;DHT22;10583;49.084;8.646;2023-06-14T11:31:24;29.60;73.40
20845;DHT22;10583;49.084;8.646;2023-06-14T11:33:53;29.90;77.10
20845;DHT22;10583;49.084;8.646;2023-06-14T11:36:20;30.10;73.40
20845;DHT22;10583;49.084;8.646;2023-06-14T11:38:48;30.30;73.90
20845;DHT22;10583;49.084;8.646;2023-06-14T11:41:15;29.30;71.90
20845;DHT22;10583;49.084;8.646;2023-06-14T11:43:42;28.30;74.10
20845;DHT22;10583;49.084;8.646;2023-06-14T11:46:13;27.50;74.40
20845;DHT22;10583;49.084;8.646;2023-06-14T11:48:42;27.10;74.90
20845;DHT22;10583;49.084;8.646;2023-06-14T11:51:09;27.50;74.90
20845;DHT22;10583;49.084;8.646;2023-06-14T11:53:36;28.30;74.10
20845;DHT22;10583;49.084;8.646;2023-06-14T11:56:05;29.10;73.90
20845;DHT22;10583;49.084;8.646;2023-06-14T11:58:32;29.60;72.70
20845;DHT22;10583;49.084;8.646;2023-06-14T12:00:58;29.80;71.40
20845;DHT22;10583;49.084;8.646;2023-06-14T12:03:25;30.20;72.50
20845;DHT22;10583;49.084;8.646;2023-06-14T12:06:02;29.80;71.00
20845;DHT22;10583;49.084;8.646;2023-06-14T12:08:33;30.10;72.30
20845;DHT22;10583;49.084;8.646;2023-06-14T12:11:06;30.60;71.80
20845;DHT22;10583;49.084;8.646;2023-06-14T12:13:37;30.50;70.70
20845;DHT22;10583;49.084;8.646;2023-06-14T12:16:04;29.60;70.90
20845;DHT22;10583;49.084;8.646;2023-06-14T12:18:35;28.70;71.40
20845;DHT22;10583;49.084;8.646;2023-06-14T12:21:04;28.10;72.90
20845;DHT22;10583;49.084;8.646;2023-06-14T12:23:44;27.70;72.80
20845;DHT22;10583;49.084;8.646;2023-06-14T12:26:14;26.90;73.40
20845;DHT22;10583;49.084;8.646;2023-06-14T12:28:42;26.30;75.70
20845;DHT22;10583;49.084;8.646;2023-06-14T12:31:09;26.10;74.40
20845;DHT22;10583;49.084;8.646;2023-06-14T12:33:35;26.80;73.90
20845;DHT22;10583;49.084;8.646;2023-06-14T12:36:04;28.00;73.90
20845;DHT22;10583;49.084;8.646;2023-06-14T12:38:31;29.30;74.10
20845;DHT22;10583;49.084;8.646;2023-06-14T12:40:57;29.80;70.60
20845;DHT22;10583;49.084;8.646;2023-06-14T12:43:25;28.80;70.60
20845;DHT22;10583;49.084;8.646;2023-06-14T12:45:52;28.00;71.90
20845;DHT22;10583;49.084;8.646;2023-06-14T12:48:19;27.50;73.00
20845;DHT22;10583;49.084;8.646;2023-06-14T12:50:47;27.30;73.20
20845;DHT22;10583;49.084;8.646;2023-06-14T12:53:13;27.00;74.20
20845;DHT22;10583;49.084;8.646;2023-06-14T12:55:40;26.80;74.40
20845;DHT22;10583;49.084;8.646;2023-06-14T12:58:07;26.40;73.00
20845;DHT22;10583;49.084;8.646;2023-06-14T13:00:35;25.90;72.60
20845;DHT22;10583;49.084;8.646;2023-06-14T13:03:02;26.00;73.40
20845;DHT22;10583;49.084;8.646;2023-06-14T13:05:29;26.90;72.60
20845;DHT22;10583;49.084;8.646;2023-06-14T13:07:56;27.80;72.90
20845;DHT22;10583;49.084;8.646;2023-06-14T13:10:23;28.50;73.60
20845;DHT22;10583;49.084;8.646;2023-06-14T13:12:50;28.60;73.80
20845;DHT22;10583;49.084;8.646;2023-06-14T13:15:17;29.10;71.00
20845;DHT22;10583;49.084;8.646;2023-06-14T13:17:45;29.30;68.50
20845;DHT22;10583;49.084;8.646;2023-06-14T13:20:14;28.90;69.40
20845;DHT22;10583;49.084;8.646;2023-06-14T13:22:41;28.40;71.30
20845;DHT22;10583;49.084;8.646;2023-06-14T13:25:08;27.80;71.50
20845;DHT22;10583;49.084;8.646;2023-06-14T13:27:35;27.00;72.10
20845;DHT22;10583;49.084;8.646;2023-06-14T13:30:02;26.40;72.20
20845;DHT22;10583;49.084;8.646;2023-06-14T13:32:31;26.30;72.80
20845;DHT22;10583;49.084;8.646;2023-06-14T13:34:59;26.70;71.80
20845;DHT22;10583;49.084;8.646;2023-06-14T13:37:26;27.20;71.20
20845;DHT22;10583;49.084;8.646;2023-06-14T13:39:53;27.60;73.10
20845;DHT22;10583;49.084;8.646;2023-06-14T13:42:19;28.10;71.50
20845;DHT22;10583;49.084;8.646;2023-06-14T13:44:46;28.20;71.00
20845;DHT22;10583;49.084;8.646;2023-06-14T13:47:13;28.20;70.60
20845;DHT22;10583;49.084;8.646;2023-06-14T13:49:40;27.90;71.10
20845;DHT22;10583;49.084;8.646;2023-06-14T13:52:08;27.40;71.20
20845;DHT22;10583;49.084;8.646;2023-06-14T13:54:34;26.90;71.20
20845;DHT22;10583;49.084;8.646;2023-06-14T13:57:02;26.30;73.00
20845;DHT22;10583;49.084;8.646;2023-06-14T13:59:28;26.20;72.10
20845;DHT22;10583;49.084;8.646;2023-06-14T14:01:56;26.60;72.60
20845;DHT22;10583;49.084;8.646;2023-06-14T14:04:23;26.90;70.00
20845;DHT22;10583;49.084;8.646;2023-06-14T14:06:49;27.20;69.80
20845;DHT22;10583;49.084;8.646;2023-06-14T14:09:17;27.40;70.60
20845;DHT22;10583;49.084;8.646;2023-06-14T14:11:44;27.50;71.40
20845;DHT22;10583;49.084;8.646;2023-06-14T14:14:11;27.30;71.70
20845;DHT22;10583;49.084;8.646;2023-06-14T14:16:37;27.10;71.70
20845;DHT22;10583;49.084;8.646;2023-06-14T14:19:04;27.10;71.40
20845;DHT22;10583;49.084;8.646;2023-06-14T14:21:31;27.10;75.10
20845;DHT22;10583;49.084;8.646;2023-06-14T14:23:57;27.00;72.20
20845;DHT22;10583;49.084;8.646;2023-06-14T14:26:25;27.00;71.90
20845;DHT22;10583;49.084;8.646;2023-06-14T14:28:53;26.90;72.50
20845;DHT22;10583;49.084;8.646;2023-06-14T14:31:20;26.60;72.60
20845;DHT22;10583;49.084;8.646;2023-06-14T14:33:46;26.50;71.50
20845;DHT22;10583;49.084;8.646;2023-06-14T14:36:13;26.20;72.40
20845;DHT22;10583;49.084;8.646;2023-06-14T14:38:40;26.10;73.50
20845;DHT22;10583;49.084;8.646;2023-06-14T14:41:06;26.00;73.60
20845;DHT22;10583;49.084;8.646;2023-06-14T14:43:34;25.80;72.00
20845;DHT22;10583;49.084;8.646;2023-06-14T14:46:01;25.80;72.70
20845;DHT22;10583;49.084;8.646;2023-06-14T14:48:27;25.80;72.60
20845;DHT22;10583;49.084;8.646;2023-06-14T14:50:54;26.00;74.80
20845;DHT22;10583;49.084;8.646;2023-06-14T14:53:21;26.10;73.60
20845;DHT22;10583;49.084;8.646;2023-06-14T14:55:48;26.20;72.30
20845;DHT22;10583;49.084;8.646;2023-06-14T14:58:14;26.20;73.00
20845;DHT22;10583;49.084;8.646;2023-06-14T15:00:44;26.10;73.20
20845;DHT22;10583;49.084;8.646;2023-06-14T15:03:12;26.20;73.00
20845;DHT22;10583;49.084;8.646;2023-06-14T15:05:38;26.00;73.30
20845;DHT22;10583;49.084;8.646;2023-06-14T15:08:05;25.90;73.90
20845;DHT22;10583;49.084;8.646;2023-06-14T15:10:37;25.80;73.60
20845;DHT22;10583;49.084;8.646;2023-06-14T15:13:06;25.80;74.90
20845;DHT22;10583;49.084;8.646;2023-06-14T15:15:32;25.80;73.50
20845;DHT22;10583;49.084;8.646;2023-06-14T15:18:00;25.80;73.80
20845;DHT22;10583;49.084;8.646;2023-06-14T15:20:27;25.90;73.60
20845;DHT22;10583;49.084;8.646;2023-06-14T15:22:54;25.80;73.50
20845;DHT22;10583;49.084;8.646;2023-06-14T15:25:27;25.80;73.20
20845;DHT22;10583;49.084;8.646;2023-06-14T15:27:54;25.80;74.50
20845;DHT22;10583;49.084;8.646;2023-06-14T15:30:20;25.90;74.10
20845;DHT22;10583;49.084;8.646;2023-06-14T15:32:47;25.80;74.50
20845;DHT22;10583;49.084;8.646;2023-06-14T15:35:17;25.70;74.60
20845;DHT22;10583;49.084;8.646;2023-06-14T15:37:44;25.70;74.80
20845;DHT22;10583;49.084;8.646;2023-06-14T15:40:11;25.60;74.70
20845;DHT22;10583;49.084;8.646;2023-06-14T15:42:38;25.40;74.60
20845;DHT22;10583;49.084;8.646;2023-06-14T15:45:05;25.30;75.60